Time;durP1;ratioP1;P1;durP2;ratioP2;P2;SDS_P1;SDS_P2;PMS_P1;PMS_P2;Temp;Humidity;BMP_temperature;BMP_pressure;BME280_temperature;BME280_humidity;BME280_pressure;Samples;Min_cycle;Max_cycle;Signal;HPM_P1;HPM_P2
2023/09/14 00:00:32;;;;;;;;;;;;;;;23.53;59.62;101578.38;5025167;28;19944;-80
2023/09/14 00:03:02;;;;;;;;;;;;;;;23.50;59.56;101580.16;5036856;28;20013;-80
2023/09/14 00:05:28;;;;;;;;;;;;;;;23.55;59.53;101571.31;5043259;28;20402;-81
2023/09/14 00:07:54;;;;;;;;;;;;;;;23.50;59.66;101575.69;5052837;28;19920;-80
2023/09/14 00:10:19;;;;;;;;;;;;;;;23.53;59.93;101580.19;5044600;28;19917;-81
2023/09/14 00:12:45;;;;;;;;;;;;;;;23.50;59.49;101570.38;5038413;28;19913;-80
2023/09/14 00:15:10;;;;;;;;;;;;;;;23.49;59.77;101579.22;5052961;28;20035;-80
2023/09/14 00:17:36;;;;;;;;;;;;;;;23.47;59.83;101575.63;5053740;28;19921;-80
2023/09/14 00:20:01;;;;;;;;;;;;;;;23.47;59.86;101578.31;5044784;28;20361;-80
2023/09/14 00:22:27;;;;;;;;;;;;;;;23.47;59.59;101575.63;5034078;28;19979;-80
2023/09/14 00:24:52;;;;;;;;;;;;;;;23.48;59.49;101571.22;5041906;28;19918;-81
2023/09/14 00:27:18;;;;;;;;;;;;;;;23.46;59.66;101570.31;5044793;28;19924;-81
2023/09/14 00:29:45;;;;;;;;;;;;;;;23.52;59.38;101568.63;5046252;28;20341;-81
2023/09/14 00:32:11;;;;;;;;;;;;;;;23.46;59.74;101563.19;5051002;28;19917;-81
2023/09/14 00:34:36;;;;;;;;;;;;;;;23.48;59.76;101569.44;5047684;28;20387;-81
2023/09/14 00:37:02;;;;;;;;;;;;;;;23.47;59.59;101558.75;5051597;28;20396;-81
2023/09/14 00:39:28;;;;;;;;;;;;;;;23.48;59.44;101557.91;5052389;28;19925;-81
2023/09/14 00:41:53;;;;;;;;;;;;;;;23.46;59.50;101563.19;5039780;28;19929;-81
2023/09/14 00:44:19;;;;;;;;;;;;;;;23.43;59.64;101560.50;5052762;28;19921;-81
2023/09/14 00:46:44;;;;;;;;;;;;;;;23.47;59.64;101559.66;5050596;28;19923;-80
2023/09/14 00:49:10;;;;;;;;;;;;;;;23.45;59.79;101563.16;5052290;28;19924;-81
2023/09/14 00:51:35;;;;;;;;;;;;;;;23.47;59.64;101558.75;5014142;28;20019;-80
2023/09/14 00:54:03;;;;;;;;;;;;;;;23.44;59.70;101556.94;5048972;28;20437;-80
2023/09/14 00:56:28;;;;;;;;;;;;;;;23.40;59.54;101554.22;5050869;28;20393;-80
2023/09/14 00:58:54;;;;;;;;;;;;;;;23.37;59.62;101557.75;5035460;28;19916;-80
2023/09/14 01:01:20;;;;;;;;;;;;;;;23.43;59.96;101555.19;5050990;28;19921;-81
2023/09/14 01:03:45;;;;;;;;;;;;;;;23.38;59.81;101557.75;5051101;28;19928;-80
2023/09/14 01:06:11;;;;;;;;;;;;;;;23.41;59.72;101553.34;5021801;28;19933;-81
2023/09/14 01:08:36;;;;;;;;;;;;;;;23.43;59.66;101554.25;5037514;28;19921;-80
2023/09/14 01:11:01;;;;;;;;;;;;;;;23.37;59.57;101555.97;5019223;28;19917;-80
2023/09/14 01:13:39;;;;;;;;;;;;;;;23.43;59.43;101555.19;5038483;28;19913;-81
2023/09/14 01:16:15;;;;;;;;;;;;;;;23.35;59.65;101552.41;5017449;28;20386;-81
2023/09/14 01:18:42;;;;;;;;;;;;;;;23.41;59.78;101558.66;5012449;28;19913;-81
2023/09/14 01:21:26;;;;;;;;;;;;;;;23.36;59.74;101553.28;5008791;28;20315;-81
2023/09/14 01:23:57;;;;;;;;;;;;;;;23.36;59.53;101554.16;5040220;28;19917;-80
2023/09/14 01:26:22;;;;;;;;;;;;;;;23.37;59.48;101555.97;5024591;28;19948;-80
2023/09/14 01:28:48;;;;;;;;;;;;;;;23.38;59.53;101560.41;5024086;28;20409;-80
2023/09/14 01:31:14;;;;;;;;;;;;;;;23.33;59.60;101561.25;5014908;28;19921;-81
2023/09/14 01:33:42;;;;;;;;;;;;;;;23.34;59.56;101563.03;5029738;28;20349;-82
2023/09/14 01:36:16;;;;;;;;;;;;;;;23.33;59.47;101563.91;5023059;28;19913;-81
2023/09/14 01:38:42;;;;;;;;;;;;;;;23.29;59.66;101562.97;5037117;28;19939;-81
2023/09/14 01:41:08;;;;;;;;;;;;;;;23.28;59.77;101561.19;5030594;28;19991;-81
2023/09/14 01:43:34;;;;;;;;;;;;;;;23.30;59.59;101564.75;5018493;28;20383;-81
2023/09/14 01:46:00;;;;;;;;;;;;;;;23.32;59.71;101567.44;5006485;28;19917;-81
2023/09/14 01:48:25;;;;;;;;;;;;;;;23.31;59.67;101553.22;5028252;28;19943;-82
2023/09/14 01:50:51;;;;;;;;;;;;;;;23.29;59.64;101562.06;5032629;28;19917;-81
2023/09/14 01:53:16;;;;;;;;;;;;;;;23.29;59.76;101564.75;5031662;28;19918;-81
2023/09/14 01:55:42;;;;;;;;;;;;;;;23.31;59.77;101558.56;5031037;28;20303;-80
2023/09/14 01:58:07;;;;;;;;;;;;;;;23.33;59.74;101562.13;5032271;28;19921;-80
2023/09/14 02:00:33;;;;;;;;;;;;;;;23.32;59.54;101554.13;5028920;28;20447;-81
2023/09/14 02:02:58;;;;;;;;;;;;;;;23.32;59.41;101559.44;5026431;28;20463;-80
2023/09/14 02:05:23;;;;;;;;;;;;;;;23.30;59.50;101555.84;5018189;28;19921;-81
2023/09/14 02:07:49;;;;;;;;;;;;;;;23.28;59.50;101554.94;5034338;28;19920;-80
2023/09/14 02:10:15;;;;;;;;;;;;;;;23.30;59.61;101558.53;5031862;28;19921;-80
2023/09/14 02:12:40;;;;;;;;;;;;;;;23.27;59.65;101559.38;5027166;28;19917;-81
2023/09/14 02:15:08;;;;;;;;;;;;;;;23.25;59.61;101562.91;5028986;28;20389;-80
2023/09/14 02:17:34;;;;;;;;;;;;;;;23.26;59.87;101567.34;5032173;28;20412;-81
2023/09/14 02:19:59;;;;;;;;;;;;;;;23.25;59.77;101563.78;5029225;28;19913;-81
2023/09/14 02:22:25;;;;;;;;;;;;;;;23.24;59.65;101564.69;5020974;28;20428;-81
2023/09/14 02:24:51;;;;;;;;;;;;;;;23.23;59.67;101565.53;5030665;28;19924;-82
2023/09/14 02:27:16;;;;;;;;;;;;;;;23.23;59.69;101567.31;5008720;28;20000;-81
2023/09/14 02:29:42;;;;;;;;;;;;;;;23.21;59.89;101564.63;5004860;28;19948;-80
2023/09/14 02:32:07;;;;;;;;;;;;;;;23.21;59.68;101556.63;5030117;28;19921;-80
2023/09/14 02:34:33;;;;;;;;;;;;;;;23.23;59.53;101561.97;5012050;28;19921;-80
2023/09/14 02:36:58;;;;;;;;;;;;;;;23.19;59.70;101557.47;5029177;28;19913;-81
2023/09/14 02:39:24;;;;;;;;;;;;;;;23.16;59.77;101561.88;5026963;28;19991;-81
2023/09/14 02:41:49;;;;;;;;;;;;;;;23.21;59.53;101561.06;5029315;28;19964;-81
2023/09/14 02:44:15;;;;;;;;;;;;;;;23.21;59.78;101558.41;5028766;28;19918;-81
2023/09/14 02:46:40;;;;;;;;;;;;;;;23.17;59.80;101561.00;5027596;28;20460;-81
2023/09/14 02:49:05;;;;;;;;;;;;;;;23.18;59.76;101559.25;5030132;28;19913;-81
2023/09/14 02:51:31;;;;;;;;;;;;;;;23.19;59.88;101562.81;5017459;28;19929;-81
2023/09/14 02:53:56;;;;;;;;;;;;;;;23.17;59.90;101558.34;5029466;28;19933;-81
2023/09/14 02:56:22;;;;;;;;;;;;;;;23.19;59.85;101562.81;5029661;28;20411;-81
2023/09/14 02:58:47;;;;;;;;;;;;;;;23.16;59.79;101561.00;5030388;28;20317;-81
2023/09/14 03:01:13;;;;;;;;;;;;;;;23.16;59.94;101556.56;5028678;28;20297;-82
2023/09/14 03:03:38;;;;;;;;;;;;;;;23.16;59.80;101561.88;5004675;28;20395;-82
2023/09/14 03:06:04;;;;;;;;;;;;;;;23.14;59.91;101555.66;5019605;28;19972;-80
2023/09/14 03:08:30;;;;;;;;;;;;;;;23.18;59.70;101551.25;5027885;28;19917;-81
2023/09/14 03:10:56;;;;;;;;;;;;;;;23.15;59.67;101548.53;5020997;28;20003;-80
2023/09/14 03:13:22;;;;;;;;;;;;;;;23.14;59.88;101558.31;5029162;28;20436;-83
2023/09/14 03:15:56;;;;;;;;;;;;;;;23.14;60.06;101557.41;5035529;28;20361;-83
2023/09/14 03:18:21;;;;;;;;;;;;;;;23.12;59.92;101561.84;5023797;28;19917;-83
2023/09/14 03:20:50;;;;;;;;;;;;;;;23.11;59.69;101558.28;5034991;28;19970;-82
2023/09/14 03:23:16;;;;;;;;;;;;;;;23.11;59.83;101552.94;5039378;28;19924;-83
2023/09/14 03:25:42;;;;;;;;;;;;;;;23.15;59.76;101545.88;5032888;28;19917;-82
2023/09/14 03:28:08;;;;;;;;;;;;;;;23.12;59.71;101549.41;5026045;28;20366;-80
2023/09/14 03:30:34;;;;;;;;;;;;;;;23.08;60.03;101544.00;5025715;28;19924;-80
2023/09/14 03:33:00;;;;;;;;;;;;;;;23.12;59.79;101551.16;5010815;28;20007;-81
2023/09/14 03:35:25;;;;;;;;;;;;;;;23.10;59.70;101558.25;5028706;28;20495;-83
2023/09/14 03:37:51;;;;;;;;;;;;;;;23.11;59.93;101563.59;5031744;28;19925;-82
2023/09/14 03:40:16;;;;;;;;;;;;;;;23.08;59.84;101562.66;5035241;28;20003;-82
2023/09/14 03:42:42;;;;;;;;;;;;;;;23.08;59.89;101554.66;5033196;28;20056;-82
2023/09/14 03:45:08;;;;;;;;;;;;;;;23.08;59.95;101560.00;5016283;28;19948;-82
2023/09/14 03:47:33;;;;;;;;;;;;;;;23.08;59.73;101550.22;5038612;28;20327;-80
2023/09/14 03:49:59;;;;;;;;;;;;;;;23.08;59.78;101554.66;5026104;28;20000;-81
2023/09/14 03:52:25;;;;;;;;;;;;;;;23.06;59.82;101554.63;5032631;28;20422;-80
2023/09/14 03:54:50;;;;;;;;;;;;;;;23.03;59.76;101557.25;5025852;28;20487;-80
2023/09/14 03:57:16;;;;;;;;;;;;;;;23.04;59.77;101564.38;5021710;28;20511;-83
2023/09/14 03:59:44;;;;;;;;;;;;;;;23.06;59.79;101565.28;5035162;28;20234;-81
2023/09/14 04:02:10;;;;;;;;;;;;;;;23.08;59.72;101567.97;5024979;28;20373;-80
2023/09/14 04:04:36;;;;;;;;;;;;;;;23.07;59.66;101566.16;5036866;28;19925;-81
2023/09/14 04:07:01;;;;;;;;;;;;;;;23.07;59.60;101577.75;5052973;28;19924;-79
2023/09/14 04:09:29;;;;;;;;;;;;;;;23.06;59.80;101565.28;5049486;28;19925;-80
2023/09/14 04:11:55;;;;;;;;;;;;;;;23.02;59.85;101563.44;5050260;28;19966;-81
2023/09/14 04:14:21;;;;;;;;;;;;;;;23.03;59.74;101559.00;5054809;28;19920;-80
2023/09/14 04:16:47;;;;;;;;;;;;;;;23.03;59.96;101567.00;5054924;28;19935;-81
2023/09/14 04:19:13;;;;;;;;;;;;;;;23.01;59.78;101568.75;5053014;28;19921;-80
2023/09/14 04:21:40;;;;;;;;;;;;;;;23.05;59.58;101566.16;5053413;28;19925;-80
2023/09/14 04:24:06;;;;;;;;;;;;;;;23.03;59.61;101565.25;5048571;28;19917;-79
2023/09/14 04:26:31;;;;;;;;;;;;;;;23.02;59.65;101557.22;5053226;28;20373;-80
2023/09/14 04:28:57;;;;;;;;;;;;;;;23.00;59.75;101562.50;5049799;28;20423;-80
2023/09/14 04:31:22;;;;;;;;;;;;;;;23.01;59.64;101553.69;5041778;28;20007;-82
2023/09/14 04:33:48;;;;;;;;;;;;;;;23.00;59.66;101556.28;5051477;28;20004;-80
2023/09/14 04:36:13;;;;;;;;;;;;;;;23.00;59.72;101562.50;5052714;28;19999;-81
2023/09/14 04:38:38;;;;;;;;;;;;;;;22.97;59.72;101562.47;5046045;28;19921;-81
2023/09/14 04:41:04;;;;;;;;;;;;;;;23.00;59.65;101562.50;5050499;28;20397;-80
2023/09/14 04:43:32;;;;;;;;;;;;;;;23.00;59.70;101564.25;5039965;28;20333;-82
2023/09/14 04:45:58;;;;;;;;;;;;;;;22.97;59.87;101560.69;5052766;28;19950;-81
2023/09/14 04:48:23;;;;;;;;;;;;;;;22.98;59.63;101569.56;5044753;28;20301;-81
2023/09/14 04:50:49;;;;;;;;;;;;;;;22.97;59.82;101574.00;5053234;28;20443;-81
2023/09/14 04:53:14;;;;;;;;;;;;;;;22.96;59.83;101576.63;5049455;28;20382;-83
2023/09/14 04:55:40;;;;;;;;;;;;;;;22.96;59.80;101568.63;5048177;28;20432;-83
2023/09/14 04:58:06;;;;;;;;;;;;;;;22.66;60.24;101577.91;5049380;28;20034;-81
2023/09/14 05:00:33;;;;;;;;;;;;;;;22.56;60.44;101567.97;5047060;28;19928;-81
2023/09/14 05:03:01;;;;;;;;;;;;;;;22.53;60.68;101562.59;5058043;28;19959;-80
2023/09/14 05:05:27;;;;;;;;;;;;;;;22.62;60.64;101573.41;5050935;28;20000;-79
2023/09/14 05:07:52;;;;;;;;;;;;;;;22.64;60.82;101571.66;5033383;28;20000;-83
2023/09/14 05:10:18;;;;;;;;;;;;;;;22.51;60.96;101575.00;5040419;28;19921;-81
2023/09/14 05:12:49;;;;;;;;;;;;;;;22.47;61.00;101574.03;5043664;28;19929;-81
2023/09/14 05:15:15;;;;;;;;;;;;;;;22.47;61.09;101576.69;5053597;28;19917;-79
2023/09/14 05:17:40;;;;;;;;;;;;;;;22.54;61.03;101575.94;5050917;28;20428;-86
2023/09/14 05:20:08;;;;;;;;;;;;;;;22.72;60.35;101579.81;5046062;28;19992;-83
2023/09/14 05:22:34;;;;;;;;;;;;;;;22.72;60.84;101580.69;5046918;28;19940;-77
2023/09/14 05:24:59;;;;;;;;;;;;;;;22.71;61.22;101578.91;5047995;28;20374;-81
2023/09/14 05:27:28;;;;;;;;;;;;;;;22.79;60.61;101579.00;5049595;28;20472;-80
2023/09/14 05:29:53;;;;;;;;;;;;;;;22.80;60.49;101577.28;5046727;28;19921;-81
2023/09/14 05:32:18;;;;;;;;;;;;;;;22.83;60.88;101575.53;5030256;28;20004;-81
2023/09/14 05:34:44;;;;;;;;;;;;;;;22.88;60.65;101580.94;5050045;28;19917;-81
2023/09/14 05:37:11;;;;;;;;;;;;;;;22.86;60.26;101575.59;5049375;28;19932;-81
2023/09/14 05:39:36;;;;;;;;;;;;;;;22.87;60.35;101577.38;5043017;28;19965;-81
2023/09/14 05:42:02;;;;;;;;;;;;;;;22.87;60.42;101576.50;5047477;28;20433;-80
2023/09/14 05:44:28;;;;;;;;;;;;;;;22.88;60.15;101586.25;5046546;28;20313;-80
2023/09/14 05:46:53;;;;;;;;;;;;;;;22.87;60.37;101580.03;5046964;28;19920;-81
2023/09/14 05:49:18;;;;;;;;;;;;;;;22.86;60.11;101580.00;5051947;28;20374;-80
2023/09/14 05:51:44;;;;;;;;;;;;;;;22.86;59.99;101575.59;5051886;28;20431;-82
2023/09/14 05:54:09;;;;;;;;;;;;;;;22.84;60.09;101580.00;5050319;28;19924;-80
2023/09/14 05:56:35;;;;;;;;;;;;;;;22.87;59.90;101573.81;5047168;28;19917;-81
2023/09/14 05:59:00;;;;;;;;;;;;;;;22.88;59.89;101578.28;5046053;28;20029;-82
2023/09/14 06:01:25;;;;;;;;;;;;;;;22.87;59.91;101569.38;5047119;28;20013;-81
2023/09/14 06:03:51;;;;;;;;;;;;;;;22.85;59.96;101560.47;5049662;28;19932;-81
2023/09/14 06:06:16;;;;;;;;;;;;;;;22.82;60.25;101556.84;5033411;28;20413;-82
2023/09/14 06:08:42;;;;;;;;;;;;;;;22.85;59.96;101554.25;5048060;28;19952;-83
2023/09/14 06:11:07;;;;;;;;;;;;;;;22.84;60.03;101553.38;5048431;28;20318;-82
2023/09/14 06:13:33;;;;;;;;;;;;;;;22.84;60.05;101553.38;5052513;28;19967;-84
2023/09/14 06:15:58;;;;;;;;;;;;;;;22.85;60.61;101559.59;5047704;28;19916;-82
2023/09/14 06:18:26;;;;;;;;;;;;;;;22.87;60.56;101564.06;5047781;28;19974;-82
2023/09/14 06:20:52;;;;;;;;;;;;;;;22.89;60.17;101566.75;5051972;28;19928;-81
2023/09/14 06:23:17;;;;;;;;;;;;;;;22.87;60.26;101576.50;5049566;28;19920;-81
2023/09/14 06:25:43;;;;;;;;;;;;;;;22.85;60.08;101575.56;5054373;28;20456;-82
2023/09/14 06:28:09;;;;;;;;;;;;;;;22.85;60.27;101573.78;5051250;28;20447;-81
2023/09/14 06:30:35;;;;;;;;;;;;;;;22.83;60.29;101575.53;5038099;28;20394;-82
2023/09/14 06:33:00;;;;;;;;;;;;;;;22.86;60.22;101580.94;5045009;28;19917;-82
2023/09/14 06:35:25;;;;;;;;;;;;;;;22.86;60.22;101575.59;5049461;28;19964;-81
2023/09/14 06:37:51;;;;;;;;;;;;;;;22.84;60.34;101579.09;5026490;28;20283;-81
2023/09/14 06:40:16;;;;;;;;;;;;;;;22.86;60.23;101580.00;5033522;28;20434;-81
2023/09/14 06:42:42;;;;;;;;;;;;;;;22.89;60.31;101585.41;5043870;28;19985;-81
2023/09/14 06:45:07;;;;;;;;;;;;;;;22.91;60.29;101587.22;5046711;28;19927;-80
2023/09/14 06:47:33;;;;;;;;;;;;;;;22.91;60.24;101589.00;5051450;28;20455;-81
2023/09/14 06:49:59;;;;;;;;;;;;;;;22.90;60.30;101588.09;5038565;28;20374;-83
2023/09/14 06:52:24;;;;;;;;;;;;;;;22.89;60.30;101594.28;5043156;28;19971;-81
2023/09/14 06:54:50;;;;;;;;;;;;;;;22.91;60.47;101591.66;5033853;28;20374;-82
2023/09/14 06:57:16;;;;;;;;;;;;;;;22.92;60.30;101590.78;5051907;28;19913;-81
2023/09/14 06:59:41;;;;;;;;;;;;;;;22.95;60.31;101599.72;5038512;28;19936;-81
2023/09/14 07:02:07;;;;;;;;;;;;;;;22.93;60.41;101600.56;5051446;28;20378;-81
2023/09/14 07:04:33;;;;;;;;;;;;;;;22.96;60.37;101604.19;5048843;28;19921;-83
2023/09/14 07:06:58;;;;;;;;;;;;;;;22.96;60.43;101605.94;5041055;28;19920;-83
2023/09/14 07:09:24;;;;;;;;;;;;;;;22.95;60.38;101605.03;5049832;28;19921;-82
2023/09/14 07:11:49;;;;;;;;;;;;;;;22.96;60.60;101605.94;5033473;28;19963;-82
2023/09/14 07:14:15;;;;;;;;;;;;;;;22.98;60.36;101609.53;5046596;28;19920;-83
2023/09/14 07:16:40;;;;;;;;;;;;;;;22.95;60.44;101610.38;5051604;28;19923;-82
2023/09/14 07:19:06;;;;;;;;;;;;;;;23.00;60.32;101601.56;5038383;28;20318;-82
2023/09/14 07:21:36;;;;;;;;;;;;;;;22.97;60.42;101605.97;5051370;28;19921;-82
2023/09/14 07:24:03;;;;;;;;;;;;;;;22.98;60.33;101613.06;5037852;28;20022;-82
2023/09/14 07:26:29;;;;;;;;;;;;;;;23.01;60.52;101611.38;5041516;28;20338;-82
2023/09/14 07:28:54;;;;;;;;;;;;;;;23.01;60.55;101617.63;5044877;28;19920;-81
2023/09/14 07:31:20;;;;;;;;;;;;;;;22.98;60.47;101614.84;5041474;28;20007;-82
2023/09/14 07:33:45;;;;;;;;;;;;;;;22.99;60.52;101611.31;5037710;28;20448;-81
2023/09/14 07:36:10;;;;;;;;;;;;;;;22.97;60.51;101613.97;5051235;28;19919;-82
2023/09/14 07:38:37;;;;;;;;;;;;;;;22.97;60.74;101610.41;5050980;28;19920;-81
2023/09/14 07:41:03;;;;;;;;;;;;;;;23.01;60.71;101616.69;5051149;28;20012;-82
2023/09/14 07:43:28;;;;;;;;;;;;;;;23.01;60.65;101614.94;5050657;28;19951;-81
2023/09/14 07:45:55;;;;;;;;;;;;;;;23.03;60.59;101621.19;5051368;28;19956;-83
2023/09/14 07:48:21;;;;;;;;;;;;;;;23.04;60.48;101624.75;5048939;28;19920;-82
2023/09/14 07:50:47;;;;;;;;;;;;;;;23.00;60.67;101617.53;5031504;28;19967;-82
2023/09/14 07:53:13;;;;;;;;;;;;;;;23.00;60.58;101615.78;5046497;28;19916;-82
2023/09/14 07:55:38;;;;;;;;;;;;;;;23.04;60.47;101612.31;5032880;28;20496;-82
2023/09/14 07:58:06;;;;;;;;;;;;;;;23.05;60.53;101608.81;5050205;28;20310;-83
2023/09/14 08:00:32;;;;;;;;;;;;;;;23.07;60.47;101609.72;5050898;28;19944;-82
2023/09/14 08:02:57;;;;;;;;;;;;;;;23.05;60.49;101618.53;5038680;28;20700;-83
2023/09/14 08:05:23;;;;;;;;;;;;;;;23.06;60.53;101615.03;5054231;28;19920;-83
2023/09/14 08:07:48;;;;;;;;;;;;;;;23.05;60.59;101610.53;5020870;28;20441;-82
2023/09/14 08:10:13;;;;;;;;;;;;;;;23.11;60.46;101621.31;5019061;28;20004;-83
2023/09/14 08:12:39;;;;;;;;;;;;;;;23.10;60.43;101616.88;5019734;28;19913;-82
2023/09/14 08:15:04;;;;;;;;;;;;;;;23.10;60.38;101611.53;5026529;28;20004;-83
2023/09/14 08:17:30;;;;;;;;;;;;;;;23.09;60.46;101607.97;5014855;28;19949;-83
2023/09/14 08:19:55;;;;;;;;;;;;;;;23.07;60.27;101608.81;5030969;28;19963;-83
2023/09/14 08:22:23;;;;;;;;;;;;;;;23.08;60.43;101603.50;5033046;28;19921;-82
2023/09/14 08:24:51;;;;;;;;;;;;;;;23.04;60.34;101603.44;5043322;28;20313;-82
2023/09/14 08:27:16;;;;;;;;;;;;;;;23.07;60.26;101608.81;5044402;28;19921;-82
2023/09/14 08:29:43;;;;;;;;;;;;;;;23.07;60.63;101608.81;5022516;28;19924;-81
2023/09/14 08:32:08;;;;;;;;;;;;;;;23.04;60.68;101603.44;5023346;28;19917;-82
2023/09/14 08:34:34;;;;;;;;;;;;;;;23.04;60.58;101592.78;5054408;28;20447;-82
2023/09/14 08:37:00;;;;;;;;;;;;;;;23.02;60.70;101591.88;5051607;28;19913;-82
2023/09/14 08:39:25;;;;;;;;;;;;;;;23.00;60.42;101597.13;5022057;28;19963;-83
2023/09/14 08:41:51;;;;;;;;;;;;;;;22.95;60.80;101593.50;5047848;28;20007;-81
2023/09/14 08:44:16;;;;;;;;;;;;;;;22.96;60.54;101595.28;5053555;28;20304;-84
2023/09/14 08:46:41;;;;;;;;;;;;;;;22.94;60.49;101592.59;5027059;28;19921;-83
2023/09/14 08:49:07;;;;;;;;;;;;;;;22.90;61.36;101590.78;5019898;28;20016;-83
2023/09/14 08:51:33;;;;;;;;;;;;;;;22.92;60.84;101593.44;5024605;28;19913;-82
2023/09/14 08:53:59;;;;;;;;;;;;;;;22.88;61.68;101591.59;5036418;28;19975;-83
2023/09/14 08:56:24;;;;;;;;;;;;;;;22.86;61.38;101590.66;5046683;28;19913;-82
2023/09/14 08:58:50;;;;;;;;;;;;;;;22.91;61.03;101599.66;5036190;28;19926;-80
2023/09/14 09:01:17;;;;;;;;;;;;;;;22.90;61.51;101596.09;5021381;28;19921;-82
2023/09/14 09:03:43;;;;;;;;;;;;;;;22.88;61.37;101584.53;5032809;28;19917;-82
2023/09/14 09:06:08;;;;;;;;;;;;;;;22.90;61.22;101595.16;5041698;28;19932;-83
2023/09/14 09:08:33;;;;;;;;;;;;;;;22.88;61.36;101589.84;5043573;28;19960;-82
2023/09/14 09:11:00;;;;;;;;;;;;;;;22.89;61.52;101590.72;5043650;28;20071;-81
2023/09/14 09:13:31;;;;;;;;;;;;;;;22.87;61.74;101584.47;5052955;28;19913;-81
2023/09/14 09:15:57;;;;;;;;;;;;;;;22.90;61.30;101573.88;5039624;28;20020;-81
2023/09/14 09:18:22;;;;;;;;;;;;;;;22.92;61.34;101577.44;5053087;28;19959;-83
2023/09/14 09:20:47;;;;;;;;;;;;;;;22.89;61.48;101578.31;5054486;28;20406;-81
2023/09/14 09:23:13;;;;;;;;;;;;;;;22.89;61.54;101578.31;5033406;28;20401;-80
2023/09/14 09:25:43;;;;;;;;;;;;;;;22.91;61.38;101568.56;5041897;28;19920;-81
2023/09/14 09:28:08;;;;;;;;;;;;;;;22.90;61.70;101571.19;5051426;28;19917;-81
2023/09/14 09:30:35;;;;;;;;;;;;;;;22.89;61.66;101567.66;5050176;28;19919;-81
2023/09/14 09:33:01;;;;;;;;;;;;;;;22.89;61.79;101569.44;5052689;28;19913;-83
2023/09/14 09:35:27;;;;;;;;;;;;;;;22.91;61.82;101571.25;5034666;28;19913;-82
2023/09/14 09:37:53;;;;;;;;;;;;;;;22.90;61.50;101564.13;5052681;28;19913;-83
2023/09/14 09:40:22;;;;;;;;;;;;;;;22.87;61.90;101564.06;5050842;28;19991;-83
2023/09/14 09:42:48;;;;;;;;;;;;;;;22.91;61.61;101563.25;5034012;28;19928;-79
2023/09/14 09:45:13;;;;;;;;;;;;;;;22.91;61.58;101562.34;5047582;28;19912;-82
2023/09/14 09:47:39;;;;;;;;;;;;;;;22.92;61.49;101566.78;5051608;28;19917;-82
2023/09/14 09:50:09;;;;;;;;;;;;;;;22.88;61.69;101557.88;5036047;28;20023;-83
2023/09/14 09:52:34;;;;;;;;;;;;;;;22.88;61.92;101559.63;5042470;28;19916;-83
2023/09/14 09:55:00;;;;;;;;;;;;;;;22.90;61.78;101564.13;5045859;28;19972;-82
2023/09/14 09:57:30;;;;;;;;;;;;;;;22.87;61.86;101561.41;5031686;28;19920;-80
2023/09/14 09:59:56;;;;;;;;;;;;;;;22.89;61.98;101554.34;5049939;28;20393;-82
2023/09/14 10:02:29;;;;;;;;;;;;;;;22.91;61.81;101559.69;5047801;28;19921;-82
2023/09/14 10:04:55;;;;;;;;;;;;;;;22.89;61.87;101556.09;5050282;28;20321;-82
2023/09/14 10:07:24;;;;;;;;;;;;;;;22.85;61.90;101552.50;5051587;28;19927;-84
2023/09/14 10:09:51;;;;;;;;;;;;;;;22.91;62.07;101549.94;5047408;28;20309;-82
2023/09/14 10:12:17;;;;;;;;;;;;;;;22.90;61.73;101555.22;5033537;28;19913;-82
2023/09/14 10:14:45;;;;;;;;;;;;;;;22.93;61.81;101547.28;5052018;28;19920;-85
2023/09/14 10:17:11;;;;;;;;;;;;;;;22.93;61.92;101547.28;5030554;28;19948;-85
2023/09/14 10:19:37;;;;;;;;;;;;;;;22.92;61.85;101550.81;5046452;28;20016;-84
2023/09/14 10:22:03;;;;;;;;;;;;;;;22.92;62.00;101542.81;5025714;28;19928;-86
2023/09/14 10:24:28;;;;;;;;;;;;;;;22.89;61.87;101538.34;5030542;28;19920;-86
2023/09/14 10:26:54;;;;;;;;;;;;;;;22.90;61.99;101542.81;5039012;28;19983;-84
2023/09/14 10:29:19;;;;;;;;;;;;;;;22.92;61.97;101532.16;5031001;28;19916;-84
2023/09/14 10:31:45;;;;;;;;;;;;;;;23.00;61.82;101532.28;5016173;28;19932;-84
2023/09/14 10:34:13;;;;;;;;;;;;;;;22.98;61.67;101529.59;5029180;28;20008;-82
2023/09/14 10:36:38;;;;;;;;;;;;;;;22.99;61.82;101526.09;5046300;28;19920;-80
2023/09/14 10:39:06;;;;;;;;;;;;;;;22.95;61.88;101527.78;5025685;28;20345;-83
2023/09/14 10:41:31;;;;;;;;;;;;;;;22.91;62.26;101527.72;5047662;28;19944;-83
2023/09/14 10:43:56;;;;;;;;;;;;;;;22.89;62.05;101522.38;5032370;28;20394;-82
2023/09/14 10:46:29;;;;;;;;;;;;;;;22.94;62.11;101526.03;5054903;28;19952;-83
2023/09/14 10:48:56;;;;;;;;;;;;;;;22.95;62.07;101527.78;5026053;28;19917;-83
2023/09/14 10:51:22;;;;;;;;;;;;;;;22.87;62.28;101525.88;5052059;28;19966;-83
2023/09/14 10:53:48;;;;;;;;;;;;;;;22.93;62.08;101520.66;5052155;28;19945;-80
2023/09/14 10:56:23;;;;;;;;;;;;;;;22.94;62.21;101518.03;5028363;28;20428;-82
2023/09/14 10:58:52;;;;;;;;;;;;;;;22.92;62.10;101514.44;5051061;28;19927;-82
2023/09/14 11:01:24;;;;;;;;;;;;;;;22.93;61.98;101523.31;5045882;28;19928;-80
2023/09/14 11:04:06;;;;;;;;;;;;;;;23.03;61.89;101516.38;5048952;28;19924;-83
2023/09/14 11:06:41;;;;;;;;;;;;;;;23.00;61.84;101522.53;5031064;28;19998;-81
2023/09/14 11:09:07;;;;;;;;;;;;;;;22.98;61.86;101519.84;5049556;28;20508;-82
2023/09/14 11:11:41;;;;;;;;;;;;;;;22.99;61.92;101520.75;5041117;28;20004;-81
2023/09/14 11:14:07;;;;;;;;;;;;;;;23.04;61.60;101519.06;5030031;28;20019;-81
2023/09/14 11:16:43;;;;;;;;;;;;;;;23.01;61.76;101513.72;5048050;28;20007;-80
2023/09/14 11:19:09;;;;;;;;;;;;;;;23.00;61.84;101509.22;5049910;28;19917;-81
2023/09/14 11:21:34;;;;;;;;;;;;;;;23.03;61.69;101503.06;5046976;28;19927;-80
2023/09/14 11:24:01;;;;;;;;;;;;;;;23.05;61.80;101506.63;5050565;28;20019;-81
2023/09/14 11:26:29;;;;;;;;;;;;;;;23.07;61.54;101499.56;5050852;28;20321;-81
2023/09/14 11:28:55;;;;;;;;;;;;;;;23.11;61.55;101497.00;5048509;28;20351;-81
2023/09/14 11:31:30;;;;;;;;;;;;;;;23.16;61.51;101499.72;5020250;28;19913;-80
2023/09/14 11:33:56;;;;;;;;;;;;;;;23.11;61.65;101493.41;5046085;28;19916;-82
2023/09/14 11:36:25;;;;;;;;;;;;;;;23.13;61.53;101492.56;5049924;28;20436;-82
2023/09/14 11:38:50;;;;;;;;;;;;;;;23.13;61.61;101489.00;5049901;28;19916;-83
2023/09/14 11:41:34;;;;;;;;;;;;;;;23.12;61.68;101481.91;5053857;28;19917;-82
2023/09/14 11:44:04;;;;;;;;;;;;;;;23.11;61.59;101482.75;5037037;28;19913;-82
2023/09/14 11:46:29;;;;;;;;;;;;;;;23.15;61.53;101488.13;5054470;28;19919;-82
2023/09/14 11:48:55;;;;;;;;;;;;;;;23.18;61.55;101479.31;5053892;28;19917;-82
2023/09/14 11:51:24;;;;;;;;;;;;;;;23.22;61.51;101480.22;5034699;28;20389;-83
2023/09/14 11:53:50;;;;;;;;;;;;;;;23.23;61.55;101476.72;5025158;28;20390;-82
2023/09/14 11:56:18;;;;;;;;;;;;;;;23.20;61.76;101474.91;5038875;28;19919;-83
2023/09/14 11:58:45;;;;;;;;;;;;;;;23.24;61.90;101474.06;5036266;28;19917;-81
2023/09/14 12:01:12;;;;;;;;;;;;;;;23.25;61.54;101467.84;5047083;28;19921;-82
2023/09/14 12:03:38;;;;;;;;;;;;;;;23.26;61.59;101471.41;5047444;28;20011;-81
2023/09/14 12:06:03;;;;;;;;;;;;;;;23.34;61.20;101470.63;5041130;28;19967;-82
2023/09/14 12:08:29;;;;;;;;;;;;;;;23.35;61.36;101466.22;5052954;28;19920;-81
2023/09/14 12:10:56;;;;;;;;;;;;;;;23.37;61.48;101459.13;5053110;28;19942;-86
2023/09/14 12:13:22;;;;;;;;;;;;;;;23.33;61.64;101466.19;5033913;28;19952;-83
2023/09/14 12:16:00;;;;;;;;;;;;;;;23.32;61.84;101466.16;5047195;28;19956;-85
2023/09/14 12:18:39;;;;;;;;;;;;;;;23.34;61.71;101467.97;5043623;28;19912;-85
2023/09/14 12:21:06;;;;;;;;;;;;;;;23.35;61.60;101464.44;5053487;28;20452;-84
2023/09/14 12:23:36;;;;;;;;;;;;;;;23.34;61.55;101465.28;5052557;28;20015;-83
2023/09/14 12:26:02;;;;;;;;;;;;;;;23.34;61.68;101461.75;5049264;28;19920;-84
2023/09/14 12:28:31;;;;;;;;;;;;;;;23.31;61.83;101457.28;5041807;28;19917;-86
2023/09/14 12:30:57;;;;;;;;;;;;;;;23.27;61.71;101462.56;5034442;28;20062;-87